sensor_id;sensor_type;location;lat;lon;timestamp;temperature;humidity
12720;DHT22;6424;48.520;11.228;2023-02-20T00:01:52;7.00;99.90
12720;DHT22;6424;48.520;11.228;2023-02-20T00:04:33;6.90;99.90
12720;DHT22;6424;48.520;11.228;2023-02-20T00:07:14;7.00;99.90
12720;DHT22;6424;48.520;11.228;2023-02-20T00:09:54;7.00;99.90
12720;DHT22;6424;48.520;11.228;2023-02-20T00:12:35;7.00;99.90
12720;DHT22;6424;48.520;11.228;2023-02-20T00:15:17;7.00;99.90
12720;DHT22;6424;48.520;11.228;2023-02-20T00:17:59;7.00;99.90
12720;DHT22;6424;48.520;11.228;2023-02-20T00:20:39;7.00;99.90
12720;DHT22;6424;48.520;11.228;2023-02-20T00:23:20;7.00;99.90
12720;DHT22;6424;48.520;11.228;2023-02-20T00:26:01;7.00;99.90
12720;DHT22;6424;48.520;11.228;2023-02-20T00:28:43;7.00;99.90
12720;DHT22;6424;48.520;11.228;2023-02-20T00:31:24;7.00;99.90
12720;DHT22;6424;48.520;11.228;2023-02-20T00:33:49;7.00;99.90
12720;DHT22;6424;48.520;11.228;2023-02-20T00:36:30;7.00;99.90
12720;DHT22;6424;48.520;11.228;2023-02-20T00:39:11;7.00;99.90
12720;DHT22;6424;48.520;11.228;2023-02-20T00:41:52;6.90;99.90
12720;DHT22;6424;48.520;11.228;2023-02-20T00:44:33;6.90;99.90
12720;DHT22;6424;48.520;11.228;2023-02-20T00:47:14;7.00;99.90
12720;DHT22;6424;48.520;11.228;2023-02-20T00:49:54;6.90;99.90
12720;DHT22;6424;48.520;11.228;2023-02-20T00:52:35;6.90;99.90
12720;DHT22;6424;48.520;11.228;2023-02-20T00:55:18;6.90;99.90
12720;DHT22;6424;48.520;11.228;2023-02-20T00:57:59;6.90;99.90
12720;DHT22;6424;48.520;11.228;2023-02-20T01:00:40;6.90;99.90
12720;DHT22;6424;48.520;11.228;2023-02-20T01:03:21;6.90;99.90
12720;DHT22;6424;48.520;11.228;2023-02-20T01:06:02;6.90;99.90
12720;DHT22;6424;48.520;11.228;2023-02-20T01:08:42;6.90;99.90
12720;DHT22;6424;48.520;11.228;2023-02-20T01:11:23;7.00;99.90
12720;DHT22;6424;48.520;11.228;2023-02-20T01:14:04;6.90;99.90
12720;DHT22;6424;48.520;11.228;2023-02-20T01:16:47;6.80;99.90
12720;DHT22;6424;48.520;11.228;2023-02-20T01:19:28;6.80;99.90
12720;DHT22;6424;48.520;11.228;2023-02-20T01:21:54;6.90;99.90
12720;DHT22;6424;48.520;11.228;2023-02-20T01:24:35;6.90;99.90
12720;DHT22;6424;48.520;11.228;2023-02-20T01:27:16;6.90;99.90
12720;DHT22;6424;48.520;11.228;2023-02-20T01:29:57;6.80;99.90
12720;DHT22;6424;48.520;11.228;2023-02-20T01:32:23;6.80;99.90
12720;DHT22;6424;48.520;11.228;2023-02-20T01:35:03;6.90;99.90
12720;DHT22;6424;48.520;11.228;2023-02-20T01:37:29;6.90;99.90
12720;DHT22;6424;48.520;11.228;2023-02-20T01:40:20;6.90;99.90
12720;DHT22;6424;48.520;11.228;2023-02-20T01:43:02;6.80;99.90
12720;DHT22;6424;48.520;11.228;2023-02-20T01:45:33;6.80;99.90
12720;DHT22;6424;48.520;11.228;2023-02-20T01:48:20;6.80;99.90
12720;DHT22;6424;48.520;11.228;2023-02-20T01:51:01;6.80;99.90
12720;DHT22;6424;48.520;11.228;2023-02-20T01:53:42;6.80;99.90
12720;DHT22;6424;48.520;11.228;2023-02-20T01:56:23;6.80;99.90
12720;DHT22;6424;48.520;11.228;2023-02-20T01:59:05;6.80;99.90
12720;DHT22;6424;48.520;11.228;2023-02-20T02:01:32;6.80;99.90
12720;DHT22;6424;48.520;11.228;2023-02-20T02:04:14;6.80;99.90
12720;DHT22;6424;48.520;11.228;2023-02-20T02:06:56;6.80;99.90
12720;DHT22;6424;48.520;11.228;2023-02-20T02:09:56;6.80;99.90
12720;DHT22;6424;48.520;11.228;2023-02-20T02:12:38;6.70;99.90
12720;DHT22;6424;48.520;11.228;2023-02-20T02:15:22;6.70;99.90
12720;DHT22;6424;48.520;11.228;2023-02-20T02:18:31;6.80;99.90
12720;DHT22;6424;48.520;11.228;2023-02-20T02:24:34;6.70;99.90
12720;DHT22;6424;48.520;11.228;2023-02-20T02:45:10;6.70;99.90
12720;DHT22;6424;48.520;11.228;2023-02-20T02:48:01;6.70;99.90
12720;DHT22;6424;48.520;11.228;2023-02-20T02:50:46;6.70;99.90
12720;DHT22;6424;48.520;11.228;2023-02-20T02:53:28;6.70;99.90
12720;DHT22;6424;48.520;11.228;2023-02-20T02:56:10;6.70;99.90
12720;DHT22;6424;48.520;11.228;2023-02-20T02:59:05;6.70;99.90
12720;DHT22;6424;48.520;11.228;2023-02-20T03:01:36;6.70;99.90
12720;DHT22;6424;48.520;11.228;2023-02-20T03:04:18;6.70;99.90
12720;DHT22;6424;48.520;11.228;2023-02-20T03:07:08;6.70;99.90
12720;DHT22;6424;48.520;11.228;2023-02-20T03:10:01;6.70;99.90
12720;DHT22;6424;48.520;11.228;2023-02-20T03:12:46;6.70;99.90
12720;DHT22;6424;48.520;11.228;2023-02-20T03:15:33;6.70;99.90
12720;DHT22;6424;48.520;11.228;2023-02-20T03:21:10;6.60;99.90
12720;DHT22;6424;48.520;11.228;2023-02-20T03:24:00;6.50;99.90
12720;DHT22;6424;48.520;11.228;2023-02-20T03:26:43;6.50;99.90
12720;DHT22;6424;48.520;11.228;2023-02-20T03:29:34;6.50;99.90
12720;DHT22;6424;48.520;11.228;2023-02-20T03:32:17;6.30;99.90
12720;DHT22;6424;48.520;11.228;2023-02-20T03:35:18;6.30;99.90
12720;DHT22;6424;48.520;11.228;2023-02-20T03:38:20;6.20;99.90
12720;DHT22;6424;48.520;11.228;2023-02-20T03:41:06;6.20;99.90
12720;DHT22;6424;48.520;11.228;2023-02-20T03:44:07;6.20;99.90
12720;DHT22;6424;48.520;11.228;2023-02-20T03:46:50;6.10;99.90
12720;DHT22;6424;48.520;11.228;2023-02-20T03:49:39;6.10;99.90
12720;DHT22;6424;48.520;11.228;2023-02-20T03:52:39;6.00;99.90
12720;DHT22;6424;48.520;11.228;2023-02-20T03:55:21;6.00;99.90
12720;DHT22;6424;48.520;11.228;2023-02-20T03:58:07;6.00;99.90
12720;DHT22;6424;48.520;11.228;2023-02-20T04:00:52;6.00;99.90
12720;DHT22;6424;48.520;11.228;2023-02-20T04:03:37;6.00;99.90
12720;DHT22;6424;48.520;11.228;2023-02-20T04:06:23;5.90;99.90
12720;DHT22;6424;48.520;11.228;2023-02-20T04:09:07;5.90;99.90
12720;DHT22;6424;48.520;11.228;2023-02-20T04:11:58;5.90;99.90
12720;DHT22;6424;48.520;11.228;2023-02-20T04:14:40;5.90;99.90
12720;DHT22;6424;48.520;11.228;2023-02-20T04:17:28;5.90;99.90
12720;DHT22;6424;48.520;11.228;2023-02-20T04:20:10;5.80;99.90
12720;DHT22;6424;48.520;11.228;2023-02-20T04:22:53;5.70;99.90
12720;DHT22;6424;48.520;11.228;2023-02-20T04:25:50;5.70;99.90
12720;DHT22;6424;48.520;11.228;2023-02-20T04:28:32;5.60;99.90
12720;DHT22;6424;48.520;11.228;2023-02-20T04:31:14;5.50;99.90
12720;DHT22;6424;48.520;11.228;2023-02-20T04:33:41;5.50;99.90
12720;DHT22;6424;48.520;11.228;2023-02-20T04:36:22;5.40;99.90
12720;DHT22;6424;48.520;11.228;2023-02-20T04:39:03;5.40;99.90
12720;DHT22;6424;48.520;11.228;2023-02-20T04:41:44;5.30;99.90
12720;DHT22;6424;48.520;11.228;2023-02-20T04:44:24;5.30;99.90
12720;DHT22;6424;48.520;11.228;2023-02-20T04:47:14;5.30;99.90
12720;DHT22;6424;48.520;11.228;2023-02-20T04:49:40;5.30;99.90
12720;DHT22;6424;48.520;11.228;2023-02-20T04:52:21;5.20;99.90
12720;DHT22;6424;48.520;11.228;2023-02-20T04:55:04;5.10;99.90
12720;DHT22;6424;48.520;11.228;2023-02-20T04:57:45;5.10;99.90
12720;DHT22;6424;48.520;11.228;2023-02-20T05:00:26;5.10;99.90
12720;DHT22;6424;48.520;11.228;2023-02-20T05:03:07;5.00;99.90
12720;DHT22;6424;48.520;11.228;2023-02-20T05:05:48;5.00;99.90
12720;DHT22;6424;48.520;11.228;2023-02-20T05:08:30;4.90;99.90
12720;DHT22;6424;48.520;11.228;2023-02-20T05:11:11;4.90;99.90
12720;DHT22;6424;48.520;11.228;2023-02-20T05:13:52;4.80;99.90
12720;DHT22;6424;48.520;11.228;2023-02-20T05:16:33;4.80;99.90
12720;DHT22;6424;48.520;11.228;2023-02-20T05:19:14;4.70;99.90
12720;DHT22;6424;48.520;11.228;2023-02-20T05:21:54;4.70;99.90
12720;DHT22;6424;48.520;11.228;2023-02-20T05:24:54;4.70;99.90
12720;DHT22;6424;48.520;11.228;2023-02-20T05:27:34;4.70;99.90
12720;DHT22;6424;48.520;11.228;2023-02-20T05:30:15;4.70;99.90
12720;DHT22;6424;48.520;11.228;2023-02-20T05:32:56;4.70;99.90
12720;DHT22;6424;48.520;11.228;2023-02-20T05:35:22;4.60;99.90
12720;DHT22;6424;48.520;11.228;2023-02-20T05:38:02;4.60;99.90
12720;DHT22;6424;48.520;11.228;2023-02-20T05:40:43;4.60;99.90
12720;DHT22;6424;48.520;11.228;2023-02-20T05:43:24;4.60;99.90
12720;DHT22;6424;48.520;11.228;2023-02-20T05:46:04;4.60;99.90
12720;DHT22;6424;48.520;11.228;2023-02-20T05:48:49;4.50;99.90
12720;DHT22;6424;48.520;11.228;2023-02-20T05:51:30;4.50;99.90
12720;DHT22;6424;48.520;11.228;2023-02-20T05:54:11;4.50;99.90
12720;DHT22;6424;48.520;11.228;2023-02-20T05:56:41;4.50;99.90
12720;DHT22;6424;48.520;11.228;2023-02-20T05:59:07;4.40;99.90
12720;DHT22;6424;48.520;11.228;2023-02-20T06:01:48;4.40;99.90
12720;DHT22;6424;48.520;11.228;2023-02-20T06:04:34;4.40;99.90
12720;DHT22;6424;48.520;11.228;2023-02-20T06:07:15;4.40;99.90
12720;DHT22;6424;48.520;11.228;2023-02-20T06:09:56;4.40;99.90
12720;DHT22;6424;48.520;11.228;2023-02-20T06:12:37;4.40;99.90
12720;DHT22;6424;48.520;11.228;2023-02-20T06:15:18;4.40;99.90
12720;DHT22;6424;48.520;11.228;2023-02-20T06:17:59;4.40;99.90
12720;DHT22;6424;48.520;11.228;2023-02-20T06:20:39;4.40;99.90
12720;DHT22;6424;48.520;11.228;2023-02-20T06:23:05;4.40;99.90
12720;DHT22;6424;48.520;11.228;2023-02-20T06:25:46;4.40;99.90
12720;DHT22;6424;48.520;11.228;2023-02-20T06:28:27;4.40;99.90
12720;DHT22;6424;48.520;11.228;2023-02-20T06:31:08;4.50;99.90
12720;DHT22;6424;48.520;11.228;2023-02-20T06:33:49;4.50;99.90
12720;DHT22;6424;48.520;11.228;2023-02-20T06:36:27;4.50;99.90
12720;DHT22;6424;48.520;11.228;2023-02-20T06:39:10;4.60;99.90
12720;DHT22;6424;48.520;11.228;2023-02-20T06:41:51;4.60;99.90
12720;DHT22;6424;48.520;11.228;2023-02-20T06:44:32;4.70;99.90
12720;DHT22;6424;48.520;11.228;2023-02-20T06:47:12;4.70;99.90
12720;DHT22;6424;48.520;11.228;2023-02-20T06:49:53;4.80;99.90
12720;DHT22;6424;48.520;11.228;2023-02-20T06:52:34;4.80;99.90
12720;DHT22;6424;48.520;11.228;2023-02-20T06:55:15;4.80;99.90
12720;DHT22;6424;48.520;11.228;2023-02-20T06:57:55;4.90;99.90
12720;DHT22;6424;48.520;11.228;2023-02-20T07:00:21;5.00;99.90
12720;DHT22;6424;48.520;11.228;2023-02-20T07:03:02;5.00;99.90
12720;DHT22;6424;48.520;11.228;2023-02-20T07:05:44;5.10;99.90
12720;DHT22;6424;48.520;11.228;2023-02-20T07:08:24;5.20;99.90
12720;DHT22;6424;48.520;11.228;2023-02-20T07:11:05;5.20;99.90
12720;DHT22;6424;48.520;11.228;2023-02-20T07:13:46;5.30;99.90
12720;DHT22;6424;48.520;11.228;2023-02-20T07:16:27;5.30;99.90
12720;DHT22;6424;48.520;11.228;2023-02-20T07:19:08;5.40;99.90
12720;DHT22;6424;48.520;11.228;2023-02-20T07:21:49;5.50;99.90
12720;DHT22;6424;48.520;11.228;2023-02-20T07:24:30;5.60;99.90
12720;DHT22;6424;48.520;11.228;2023-02-20T07:27:11;5.70;99.90
12720;DHT22;6424;48.520;11.228;2023-02-20T07:29:38;5.90;99.90
12720;DHT22;6424;48.520;11.228;2023-02-20T07:32:21;6.00;99.90
12720;DHT22;6424;48.520;11.228;2023-02-20T07:35:03;6.00;99.90
12720;DHT22;6424;48.520;11.228;2023-02-20T07:37:44;5.90;99.90
12720;DHT22;6424;48.520;11.228;2023-02-20T07:40:26;5.90;99.90
12720;DHT22;6424;48.520;11.228;2023-02-20T07:43:06;6.00;99.90
12720;DHT22;6424;48.520;11.228;2023-02-20T07:45:32;6.30;99.90
12720;DHT22;6424;48.520;11.228;2023-02-20T07:48:13;6.60;99.90
12720;DHT22;6424;48.520;11.228;2023-02-20T07:50:54;6.90;99.90
12720;DHT22;6424;48.520;11.228;2023-02-20T07:53:35;7.20;99.90
12720;DHT22;6424;48.520;11.228;2023-02-20T07:56:16;7.40;99.90
12720;DHT22;6424;48.520;11.228;2023-02-20T07:58:57;7.40;99.90
12720;DHT22;6424;48.520;11.228;2023-02-20T08:01:38;7.50;99.90
12720;DHT22;6424;48.520;11.228;2023-02-20T08:04:19;7.60;99.90
12720;DHT22;6424;48.520;11.228;2023-02-20T08:07:00;7.70;99.90
12720;DHT22;6424;48.520;11.228;2023-02-20T08:09:41;7.70;99.90
12720;DHT22;6424;48.520;11.228;2023-02-20T08:12:21;7.60;99.90
12720;DHT22;6424;48.520;11.228;2023-02-20T08:15:02;7.60;99.90
12720;DHT22;6424;48.520;11.228;2023-02-20T08:17:43;7.80;99.90
12720;DHT22;6424;48.520;11.228;2023-02-20T08:20:24;7.90;99.90
12720;DHT22;6424;48.520;11.228;2023-02-20T08:23:12;8.10;99.90
12720;DHT22;6424;48.520;11.228;2023-02-20T08:25:53;8.30;99.90
12720;DHT22;6424;48.520;11.228;2023-02-20T08:28:19;8.30;99.90
12720;DHT22;6424;48.520;11.228;2023-02-20T08:31:00;8.30;99.90
12720;DHT22;6424;48.520;11.228;2023-02-20T08:33:41;8.50;99.90
12720;DHT22;6424;48.520;11.228;2023-02-20T08:36:21;8.70;99.90
12720;DHT22;6424;48.520;11.228;2023-02-20T08:39:02;8.80;99.90
12720;DHT22;6424;48.520;11.228;2023-02-20T08:41:44;9.00;99.90
12720;DHT22;6424;48.520;11.228;2023-02-20T08:44:26;9.20;99.90
12720;DHT22;6424;48.520;11.228;2023-02-20T08:47:06;9.50;99.90
12720;DHT22;6424;48.520;11.228;2023-02-20T08:49:47;9.70;99.90
12720;DHT22;6424;48.520;11.228;2023-02-20T08:52:28;9.80;99.90
12720;DHT22;6424;48.520;11.228;2023-02-20T08:55:09;10.00;99.90
12720;DHT22;6424;48.520;11.228;2023-02-20T08:57:50;10.10;99.90
12720;DHT22;6424;48.520;11.228;2023-02-20T09:00:31;10.10;99.90
12720;DHT22;6424;48.520;11.228;2023-02-20T09:03:11;10.10;99.90
12720;DHT22;6424;48.520;11.228;2023-02-20T09:05:52;10.00;99.90
12720;DHT22;6424;48.520;11.228;2023-02-20T09:08:33;10.10;99.90
12720;DHT22;6424;48.520;11.228;2023-02-20T09:11:14;10.10;99.90
12720;DHT22;6424;48.520;11.228;2023-02-20T09:13:55;10.10;99.90
12720;DHT22;6424;48.520;11.228;2023-02-20T09:16:35;10.10;99.90
12720;DHT22;6424;48.520;11.228;2023-02-20T09:19:16;10.20;99.90
12720;DHT22;6424;48.520;11.228;2023-02-20T09:21:57;10.30;99.90
12720;DHT22;6424;48.520;11.228;2023-02-20T09:24:38;10.20;99.90
12720;DHT22;6424;48.520;11.228;2023-02-20T09:27:04;10.20;99.90
12720;DHT22;6424;48.520;11.228;2023-02-20T09:29:48;10.20;99.90
12720;DHT22;6424;48.520;11.228;2023-02-20T09:32:29;10.10;99.90
12720;DHT22;6424;48.520;11.228;2023-02-20T09:35:15;10.10;99.90
12720;DHT22;6424;48.520;11.228;2023-02-20T09:37:57;10.20;99.90
12720;DHT22;6424;48.520;11.228;2023-02-20T09:40:38;10.30;99.90
12720;DHT22;6424;48.520;11.228;2023-02-20T09:46:09;10.20;99.90
12720;DHT22;6424;48.520;11.228;2023-02-20T09:51:47;10.20;99.90
12720;DHT22;6424;48.520;11.228;2023-02-20T09:54:32;10.30;99.90
12720;DHT22;6424;48.520;11.228;2023-02-20T09:57:22;10.50;99.90
12720;DHT22;6424;48.520;11.228;2023-02-20T10:00:20;10.50;99.90
12720;DHT22;6424;48.520;11.228;2023-02-20T10:06:27;10.60;99.90
12720;DHT22;6424;48.520;11.228;2023-02-20T10:09:14;10.60;99.90
12720;DHT22;6424;48.520;11.228;2023-02-20T10:21:14;10.70;99.90
12720;DHT22;6424;48.520;11.228;2023-02-20T10:27:18;11.10;99.90
12720;DHT22;6424;48.520;11.228;2023-02-20T10:30:02;11.00;99.90
12720;DHT22;6424;48.520;11.228;2023-02-20T10:35:44;11.20;99.90
12720;DHT22;6424;48.520;11.228;2023-02-20T10:38:34;11.30;99.90
12720;DHT22;6424;48.520;11.228;2023-02-20T10:47:35;11.50;99.90
12720;DHT22;6424;48.520;11.228;2023-02-20T10:50:34;11.50;99.90
12720;DHT22;6424;48.520;11.228;2023-02-20T10:56:16;11.60;99.90
12720;DHT22;6424;48.520;11.228;2023-02-20T10:59:28;11.70;99.90
12720;DHT22;6424;48.520;11.228;2023-02-20T11:02:20;11.70;99.90
12720;DHT22;6424;48.520;11.228;2023-02-20T11:05:09;11.60;99.90
12720;DHT22;6424;48.520;11.228;2023-02-20T11:07:50;11.60;99.90
12720;DHT22;6424;48.520;11.228;2023-02-20T11:10:32;11.70;99.90
12720;DHT22;6424;48.520;11.228;2023-02-20T11:13:00;11.80;99.90
12720;DHT22;6424;48.520;11.228;2023-02-20T11:15:42;11.90;99.90
12720;DHT22;6424;48.520;11.228;2023-02-20T11:18:26;12.10;99.90
12720;DHT22;6424;48.520;11.228;2023-02-20T11:21:09;12.10;99.90
12720;DHT22;6424;48.520;11.228;2023-02-20T11:23:37;12.00;99.90
12720;DHT22;6424;48.520;11.228;2023-02-20T11:29:12;12.20;99.90
12720;DHT22;6424;48.520;11.228;2023-02-20T11:31:40;12.30;99.90
12720;DHT22;6424;48.520;11.228;2023-02-20T11:34:23;12.40;99.90
12720;DHT22;6424;48.520;11.228;2023-02-20T11:37:05;12.50;99.90
12720;DHT22;6424;48.520;11.228;2023-02-20T11:39:32;12.40;99.90
12720;DHT22;6424;48.520;11.228;2023-02-20T11:42:19;12.40;99.90
12720;DHT22;6424;48.520;11.228;2023-02-20T11:45:21;12.40;99.90
12720;DHT22;6424;48.520;11.228;2023-02-20T11:50:51;12.60;99.90
12720;DHT22;6424;48.520;11.228;2023-02-20T11:53:33;12.60;99.90
12720;DHT22;6424;48.520;11.228;2023-02-20T11:56:17;12.60;99.90
12720;DHT22;6424;48.520;11.228;2023-02-20T11:59:34;12.60;99.90
12720;DHT22;6424;48.520;11.228;2023-02-20T12:05:12;12.90;99.90
12720;DHT22;6424;48.520;11.228;2023-02-20T12:07:57;12.90;99.60
12720;DHT22;6424;48.520;11.228;2023-02-20T12:13:12;12.90;99.90
12720;DHT22;6424;48.520;11.228;2023-02-20T12:19:27;13.10;99.20
12720;DHT22;6424;48.520;11.228;2023-02-20T12:33:56;13.30;99.00
12720;DHT22;6424;48.520;11.228;2023-02-20T12:36:42;13.20;99.00
12720;DHT22;6424;48.520;11.228;2023-02-20T12:42:23;13.20;99.60
12720;DHT22;6424;48.520;11.228;2023-02-20T12:47:43;13.30;99.80
12720;DHT22;6424;48.520;11.228;2023-02-20T12:59:08;13.40;99.50
12720;DHT22;6424;48.520;11.228;2023-02-20T13:01:53;13.30;98.30
12720;DHT22;6424;48.520;11.228;2023-02-20T13:04:42;13.30;98.10
12720;DHT22;6424;48.520;11.228;2023-02-20T13:10:46;13.40;98.00
12720;DHT22;6424;48.520;11.228;2023-02-20T13:13:45;13.40;97.80
12720;DHT22;6424;48.520;11.228;2023-02-20T13:16:39;13.40;98.10
12720;DHT22;6424;48.520;11.228;2023-02-20T13:19:39;13.50;97.70
12720;DHT22;6424;48.520;11.228;2023-02-20T13:22:20;13.60;96.80
12720;DHT22;6424;48.520;11.228;2023-02-20T13:24:46;13.50;97.00
12720;DHT22;6424;48.520;11.228;2023-02-20T13:27:29;13.50;97.00
12720;DHT22;6424;48.520;11.228;2023-02-20T13:30:19;13.40;97.00
12720;DHT22;6424;48.520;11.228;2023-02-20T13:33:27;13.40;97.00
12720;DHT22;6424;48.520;11.228;2023-02-20T13:35:54;13.30;97.00
12720;DHT22;6424;48.520;11.228;2023-02-20T13:38:35;13.30;97.80
12720;DHT22;6424;48.520;11.228;2023-02-20T13:41:16;13.30;98.40
12720;DHT22;6424;48.520;11.228;2023-02-20T13:49:59;13.60;96.90
12720;DHT22;6424;48.520;11.228;2023-02-20T13:52:41;13.70;97.00
12720;DHT22;6424;48.520;11.228;2023-02-20T13:55:25;13.70;97.40
12720;DHT22;6424;48.520;11.228;2023-02-20T13:58:12;13.80;97.70
12720;DHT22;6424;48.520;11.228;2023-02-20T14:00:54;13.80;96.10
12720;DHT22;6424;48.520;11.228;2023-02-20T14:03:35;13.80;97.10
12720;DHT22;6424;48.520;11.228;2023-02-20T14:06:17;13.80;95.40
12720;DHT22;6424;48.520;11.228;2023-02-20T14:09:12;13.80;96.30
12720;DHT22;6424;48.520;11.228;2023-02-20T14:12:05;13.80;96.80
12720;DHT22;6424;48.520;11.228;2023-02-20T14:14:47;13.70;96.40
12720;DHT22;6424;48.520;11.228;2023-02-20T14:17:28;13.80;95.90
12720;DHT22;6424;48.520;11.228;2023-02-20T14:20:20;13.80;96.30
12720;DHT22;6424;48.520;11.228;2023-02-20T14:22:47;13.80;96.60
12720;DHT22;6424;48.520;11.228;2023-02-20T14:25:29;13.80;97.30
12720;DHT22;6424;48.520;11.228;2023-02-20T14:28:14;13.80;97.30
12720;DHT22;6424;48.520;11.228;2023-02-20T14:31:22;13.80;95.50
12720;DHT22;6424;48.520;11.228;2023-02-20T14:42:47;13.70;95.70
12720;DHT22;6424;48.520;11.228;2023-02-20T14:45:29;13.60;94.60
12720;DHT22;6424;48.520;11.228;2023-02-20T14:48:22;13.60;95.00
12720;DHT22;6424;48.520;11.228;2023-02-20T14:51:08;13.60;94.10
12720;DHT22;6424;48.520;11.228;2023-02-20T14:54:00;13.60;94.30
12720;DHT22;6424;48.520;11.228;2023-02-20T14:56:41;13.60;94.50
12720;DHT22;6424;48.520;11.228;2023-02-20T14:59:30;13.60;94.40
12720;DHT22;6424;48.520;11.228;2023-02-20T15:05:05;13.50;95.40
12720;DHT22;6424;48.520;11.228;2023-02-20T15:07:47;13.50;95.80
12720;DHT22;6424;48.520;11.228;2023-02-20T15:10:36;13.50;95.60
12720;DHT22;6424;48.520;11.228;2023-02-20T15:13:21;13.40;95.90
12720;DHT22;6424;48.520;11.228;2023-02-20T15:18:51;13.40;96.10
12720;DHT22;6424;48.520;11.228;2023-02-20T15:21:41;13.30;96.20
12720;DHT22;6424;48.520;11.228;2023-02-20T15:27:17;13.30;96.90
12720;DHT22;6424;48.520;11.228;2023-02-20T15:30:15;13.30;96.90
12720;DHT22;6424;48.520;11.228;2023-02-20T15:32:56;13.20;96.30
12720;DHT22;6424;48.520;11.228;2023-02-20T15:35:30;13.20;96.30
12720;DHT22;6424;48.520;11.228;2023-02-20T15:38:14;13.20;96.40
12720;DHT22;6424;48.520;11.228;2023-02-20T15:40:56;13.20;96.90
12720;DHT22;6424;48.520;11.228;2023-02-20T15:43:37;13.20;96.60
12720;DHT22;6424;48.520;11.228;2023-02-20T15:46:19;13.10;97.10
12720;DHT22;6424;48.520;11.228;2023-02-20T15:49:00;13.00;96.90
12720;DHT22;6424;48.520;11.228;2023-02-20T15:51:41;13.00;97.10
12720;DHT22;6424;48.520;11.228;2023-02-20T15:54:22;13.00;97.40
12720;DHT22;6424;48.520;11.228;2023-02-20T15:57:12;12.90;97.60
12720;DHT22;6424;48.520;11.228;2023-02-20T15:59:54;12.90;98.10
12720;DHT22;6424;48.520;11.228;2023-02-20T16:02:35;12.80;98.20
12720;DHT22;6424;48.520;11.228;2023-02-20T16:05:16;12.70;98.30
12720;DHT22;6424;48.520;11.228;2023-02-20T16:07:57;12.70;98.50
12720;DHT22;6424;48.520;11.228;2023-02-20T16:10:38;12.50;98.90
12720;DHT22;6424;48.520;11.228;2023-02-20T16:13:03;12.50;98.80
12720;DHT22;6424;48.520;11.228;2023-02-20T16:15:44;12.50;98.80
12720;DHT22;6424;48.520;11.228;2023-02-20T16:18:25;12.40;98.90
12720;DHT22;6424;48.520;11.228;2023-02-20T16:21:10;12.30;98.80
12720;DHT22;6424;48.520;11.228;2023-02-20T16:23:52;12.30;99.20
12720;DHT22;6424;48.520;11.228;2023-02-20T16:26:33;12.10;99.50
12720;DHT22;6424;48.520;11.228;2023-02-20T16:29:19;12.10;99.90
12720;DHT22;6424;48.520;11.228;2023-02-20T16:34:41;11.80;99.90
12720;DHT22;6424;48.520;11.228;2023-02-20T16:37:23;11.70;99.90
12720;DHT22;6424;48.520;11.228;2023-02-20T16:39:50;11.50;99.90
12720;DHT22;6424;48.520;11.228;2023-02-20T16:42:33;11.40;99.90
12720;DHT22;6424;48.520;11.228;2023-02-20T16:45:14;11.20;99.90
12720;DHT22;6424;48.520;11.228;2023-02-20T16:47:56;11.10;99.90
12720;DHT22;6424;48.520;11.228;2023-02-20T16:50:38;11.00;99.90
12720;DHT22;6424;48.520;11.228;2023-02-20T16:53:19;10.90;99.90
12720;DHT22;6424;48.520;11.228;2023-02-20T16:56:00;10.70;99.90
12720;DHT22;6424;48.520;11.228;2023-02-20T16:58:41;10.60;99.90
12720;DHT22;6424;48.520;11.228;2023-02-20T17:01:22;10.50;99.90
12720;DHT22;6424;48.520;11.228;2023-02-20T17:04:03;10.30;99.90
12720;DHT22;6424;48.520;11.228;2023-02-20T17:06:44;10.20;99.90
12720;DHT22;6424;48.520;11.228;2023-02-20T17:09:25;10.10;99.90
12720;DHT22;6424;48.520;11.228;2023-02-20T17:12:06;10.00;99.90
12720;DHT22;6424;48.520;11.228;2023-02-20T17:14:47;9.90;99.90
12720;DHT22;6424;48.520;11.228;2023-02-20T17:17:28;9.80;99.90
12720;DHT22;6424;48.520;11.228;2023-02-20T17:20:11;9.70;99.90
12720;DHT22;6424;48.520;11.228;2023-02-20T17:22:54;9.70;99.90
12720;DHT22;6424;48.520;11.228;2023-02-20T17:25:35;9.60;99.90
12720;DHT22;6424;48.520;11.228;2023-02-20T17:28:15;9.50;99.90
12720;DHT22;6424;48.520;11.228;2023-02-20T17:30:56;9.50;99.90
12720;DHT22;6424;48.520;11.228;2023-02-20T17:33:23;9.40;99.90
12720;DHT22;6424;48.520;11.228;2023-02-20T17:36:04;9.30;99.90
12720;DHT22;6424;48.520;11.228;2023-02-20T17:38:44;9.10;99.90
12720;DHT22;6424;48.520;11.228;2023-02-20T17:41:25;9.00;99.90
12720;DHT22;6424;48.520;11.228;2023-02-20T17:44:06;9.00;99.90
12720;DHT22;6424;48.520;11.228;2023-02-20T17:46:47;8.90;99.90
12720;DHT22;6424;48.520;11.228;2023-02-20T17:49:31;8.80;99.90
12720;DHT22;6424;48.520;11.228;2023-02-20T17:52:11;8.70;99.90
12720;DHT22;6424;48.520;11.228;2023-02-20T17:54:37;8.50;99.90
12720;DHT22;6424;48.520;11.228;2023-02-20T17:57:05;8.40;99.90
12720;DHT22;6424;48.520;11.228;2023-02-20T17:59:46;8.30;99.90
12720;DHT22;6424;48.520;11.228;2023-02-20T18:02:30;8.20;99.90
12720;DHT22;6424;48.520;11.228;2023-02-20T18:05:11;8.10;99.90
12720;DHT22;6424;48.520;11.228;2023-02-20T18:07:52;8.10;99.90
12720;DHT22;6424;48.520;11.228;2023-02-20T18:10:33;8.10;99.90
12720;DHT22;6424;48.520;11.228;2023-02-20T18:13:14;8.00;99.90
12720;DHT22;6424;48.520;11.228;2023-02-20T18:15:55;8.00;99.90
12720;DHT22;6424;48.520;11.228;2023-02-20T18:18:35;8.00;99.90
12720;DHT22;6424;48.520;11.228;2023-02-20T18:21:21;8.10;99.90
12720;DHT22;6424;48.520;11.228;2023-02-20T18:24:02;8.30;99.90
12720;DHT22;6424;48.520;11.228;2023-02-20T18:26:44;8.50;99.90
12720;DHT22;6424;48.520;11.228;2023-02-20T18:29:25;8.70;99.90
12720;DHT22;6424;48.520;11.228;2023-02-20T18:32:06;8.80;99.90
12720;DHT22;6424;48.520;11.228;2023-02-20T18:34:48;8.90;99.90
12720;DHT22;6424;48.520;11.228;2023-02-20T18:37:29;9.00;99.90
12720;DHT22;6424;48.520;11.228;2023-02-20T18:40:10;9.20;99.90
12720;DHT22;6424;48.520;11.228;2023-02-20T18:42:36;9.20;99.90
12720;DHT22;6424;48.520;11.228;2023-02-20T18:45:17;9.20;99.90
12720;DHT22;6424;48.520;11.228;2023-02-20T18:47:58;9.20;99.90
12720;DHT22;6424;48.520;11.228;2023-02-20T18:50:39;9.20;99.90
12720;DHT22;6424;48.520;11.228;2023-02-20T18:53:20;9.20;99.90
12720;DHT22;6424;48.520;11.228;2023-02-20T18:56:01;9.20;99.90
12720;DHT22;6424;48.520;11.228;2023-02-20T18:58:41;9.20;99.90
12720;DHT22;6424;48.520;11.228;2023-02-20T19:01:22;9.30;99.90
12720;DHT22;6424;48.520;11.228;2023-02-20T19:04:03;9.30;99.90
12720;DHT22;6424;48.520;11.228;2023-02-20T19:06:32;9.20;99.90
12720;DHT22;6424;48.520;11.228;2023-02-20T19:09:19;9.30;99.90
12720;DHT22;6424;48.520;11.228;2023-02-20T19:12:01;9.30;99.90
12720;DHT22;6424;48.520;11.228;2023-02-20T19:14:43;9.30;99.90
12720;DHT22;6424;48.520;11.228;2023-02-20T19:17:24;9.30;99.90
12720;DHT22;6424;48.520;11.228;2023-02-20T19:20:08;9.20;99.90
12720;DHT22;6424;48.520;11.228;2023-02-20T19:22:52;9.10;99.90